Ministro Andreazza, Brazil
Current Conditions -  °F | °C
As of 3:20 PM on Thursday 27 Nov 2014 (Local Time) from SBVH Reporting Station
Thunderstorm Thunderstorm  
Wind Chill: 81°   Ceiling: 600
Heat Index: 85°   Visibility: 0.62mi
Dew Point: 72°   Wind: 8mph
Humidity: 74%   Direction: 320°NW
Pressure: NA   Gusts: NA
Location:  11.07°S, 61.52°W
Report Text: SBVH 271920Z 32007KT 1000 +TSRA BKN006 FEW014CB BKN080 27/22 Q1011
Loading
Personal Weather Stations






























Interactive Weather Map New forecast layout! Learn more

10-Day Weather Forecast

Advertisements
Track Severe Weather on mobile